createdAt,value
2018-09-22T00:01:33.130Z,12.70
2018-09-22T00:04:01.497Z,12.70
2018-09-22T00:06:29.876Z,12.70
2018-09-22T00:08:58.276Z,12.70
2018-09-22T00:11:26.664Z,12.70
2018-09-22T00:13:55.019Z,12.70
2018-09-22T00:16:23.444Z,12.70
2018-09-22T00:18:51.830Z,12.80
2018-09-22T00:21:20.231Z,12.70
2018-09-22T00:23:48.611Z,12.70
2018-09-22T00:26:16.970Z,12.70
2018-09-22T00:28:45.327Z,12.70
2018-09-22T00:31:13.671Z,12.60
2018-09-22T00:33:42.060Z,12.60
2018-09-22T00:36:10.416Z,12.70
2018-09-22T00:38:39.037Z,12.60
2018-09-22T00:41:07.419Z,12.60
2018-09-22T00:43:35.786Z,12.60
2018-09-22T00:46:04.195Z,12.60
2018-09-22T00:48:32.575Z,12.60
2018-09-22T00:51:00.951Z,12.70
2018-09-22T00:53:29.305Z,12.50
2018-09-22T00:55:57.679Z,12.60
2018-09-22T00:58:26.117Z,12.60
2018-09-22T01:00:54.539Z,12.50
2018-09-22T01:03:22.907Z,12.60
2018-09-22T01:05:51.263Z,12.40
2018-09-22T01:08:19.693Z,12.40
2018-09-22T01:10:48.115Z,12.30
2018-09-22T01:13:16.437Z,12.40
2018-09-22T01:15:44.776Z,12.40
2018-09-22T01:18:13.770Z,12.20
2018-09-22T01:20:42.183Z,12.20
2018-09-22T01:23:10.559Z,12.30
2018-09-22T01:25:38.863Z,12.30
2018-09-22T01:28:08.011Z,12.30
2018-09-22T01:30:36.638Z,12.30
2018-09-22T01:33:04.998Z,12.20
2018-09-22T01:35:33.370Z,12.20
2018-09-22T01:38:02.137Z,12.30
2018-09-22T01:40:30.809Z,12.10
2018-09-22T01:42:59.310Z,12.20
2018-09-22T01:45:27.982Z,12.20
2018-09-22T01:47:56.413Z,12.20
2018-09-22T01:50:24.773Z,12.10
2018-09-22T01:52:53.080Z,12.10
2018-09-22T01:55:21.507Z,12.10
2018-09-22T01:57:49.875Z,12.20
2018-09-22T02:00:18.190Z,12.10
2018-09-22T02:02:47.072Z,12.20
2018-09-22T02:05:15.414Z,12.10
2018-09-22T02:07:43.796Z,12.10
2018-09-22T02:10:12.114Z,12.20
2018-09-22T02:12:40.471Z,12.20
2018-09-22T02:15:08.938Z,12.10
2018-09-22T02:17:37.300Z,12.20
2018-09-22T02:20:05.728Z,12.10
2018-09-22T02:22:34.072Z,12.10
2018-09-22T02:25:02.466Z,12.00
2018-09-22T02:27:30.806Z,12.10
2018-09-22T02:29:59.172Z,12.00
2018-09-22T02:32:27.544Z,12.00
2018-09-22T02:34:55.899Z,12.00
2018-09-22T02:37:24.249Z,12.00
2018-09-22T02:39:52.614Z,11.90
2018-09-22T02:42:20.972Z,11.90
2018-09-22T02:44:49.318Z,12.00
2018-09-22T02:47:17.677Z,11.90
2018-09-22T02:49:46.028Z,12.00
2018-09-22T02:52:14.418Z,11.90
2018-09-22T02:54:42.873Z,12.00
2018-09-22T02:57:11.244Z,11.90
2018-09-22T02:59:39.629Z,11.90
2018-09-22T03:02:08.314Z,11.90
2018-09-22T03:04:36.659Z,11.90
2018-09-22T03:07:05.036Z,11.90
2018-09-22T03:09:33.983Z,11.90
2018-09-22T03:12:02.433Z,11.90
2018-09-22T03:14:30.788Z,11.90
2018-09-22T03:16:59.259Z,11.90
2018-09-22T03:19:27.663Z,11.80
2018-09-22T03:21:55.993Z,11.80
2018-09-22T03:24:24.363Z,11.80
2018-09-22T03:26:52.734Z,11.80
2018-09-22T03:29:21.112Z,11.80
2018-09-22T03:31:49.447Z,11.80
2018-09-22T03:34:17.826Z,11.80
2018-09-22T03:36:46.195Z,11.70
2018-09-22T03:39:14.594Z,11.80
2018-09-22T03:41:43.007Z,11.80
2018-09-22T03:44:11.348Z,11.70
2018-09-22T03:46:39.767Z,11.70
2018-09-22T03:49:08.204Z,11.80
2018-09-22T03:51:36.611Z,11.80
2018-09-22T03:54:05.091Z,11.80
2018-09-22T03:56:33.711Z,11.80
2018-09-22T03:59:02.068Z,11.80
2018-09-22T04:01:31.116Z,11.80
2018-09-22T04:03:59.507Z,11.80
2018-09-22T04:06:28.625Z,11.80
2018-09-22T04:08:57.071Z,11.80
2018-09-22T04:11:25.416Z,11.90
2018-09-22T04:13:53.794Z,11.90
2018-09-22T04:16:23.134Z,11.80
2018-09-22T04:18:51.503Z,11.80
2018-09-22T04:21:19.915Z,11.80
2018-09-22T04:23:48.272Z,11.90
2018-09-22T04:26:17.260Z,12.00
2018-09-22T04:28:45.938Z,12.00
2018-09-22T04:31:14.332Z,12.00
2018-09-22T04:33:43.023Z,11.90
2018-09-22T04:36:11.529Z,11.90
2018-09-22T04:38:39.860Z,11.80
2018-09-22T04:41:08.280Z,11.80
2018-09-22T04:43:36.671Z,11.70
2018-09-22T04:46:05.066Z,11.80
2018-09-22T04:48:33.437Z,11.90
2018-09-22T04:51:01.796Z,11.90
2018-09-22T04:53:30.608Z,11.90
2018-09-22T04:55:58.966Z,12.00
2018-09-22T04:58:27.279Z,11.80
2018-09-22T05:00:55.811Z,11.90
2018-09-22T05:03:24.241Z,11.80
2018-09-22T05:05:52.587Z,11.90
2018-09-22T05:08:20.942Z,11.90
2018-09-22T05:10:49.275Z,11.80
2018-09-22T05:13:17.666Z,11.80
2018-09-22T05:15:45.995Z,11.80
2018-09-22T05:18:14.351Z,11.80
2018-09-22T05:20:42.700Z,11.80
2018-09-22T05:23:11.041Z,12.10
2018-09-22T05:25:39.403Z,12.30
2018-09-22T05:28:07.731Z,12.50
2018-09-22T05:30:36.205Z,12.50
2018-09-22T05:33:04.539Z,12.50
2018-09-22T05:35:32.942Z,12.40
2018-09-22T05:38:01.213Z,12.40
2018-09-22T05:40:30.139Z,12.70
2018-09-22T05:42:58.461Z,12.90
2018-09-22T05:45:26.877Z,13.10
2018-09-22T05:47:55.363Z,13.10
2018-09-22T05:50:23.881Z,13.30
2018-09-22T05:52:52.363Z,13.80
2018-09-22T05:55:20.924Z,13.90
2018-09-22T05:57:49.556Z,14.10
2018-09-22T06:00:17.992Z,13.90
2018-09-22T06:02:46.429Z,14.30
2018-09-22T06:05:14.820Z,14.10
2018-09-22T06:07:43.248Z,14.70
2018-09-22T06:10:11.700Z,15.10
2018-09-22T06:12:40.552Z,15.70
2018-09-22T06:15:08.984Z,15.40
2018-09-22T06:17:37.331Z,15.60
2018-09-22T06:20:05.740Z,15.90
2018-09-22T06:22:34.100Z,15.70
2018-09-22T06:25:02.476Z,15.70
2018-09-22T06:27:30.819Z,16.50
2018-09-22T06:29:59.217Z,15.90
2018-09-22T06:32:27.584Z,16.50
2018-09-22T06:34:55.928Z,16.40
2018-09-22T06:37:24.774Z,16.50
2018-09-22T06:39:53.070Z,16.70
2018-09-22T06:42:21.464Z,16.70
2018-09-22T06:44:49.796Z,17.40
2018-09-22T06:47:18.180Z,17.10
2018-09-22T06:49:46.556Z,16.90
2018-09-22T06:52:14.921Z,17.30
2018-09-22T06:54:43.322Z,17.20
2018-09-22T06:57:11.696Z,16.90
2018-09-22T06:59:40.096Z,17.00
2018-09-22T07:02:08.739Z,17.00
2018-09-22T07:04:37.425Z,17.40
2018-09-22T07:07:05.844Z,18.20
2018-09-22T07:09:34.276Z,18.40
2018-09-22T07:12:02.772Z,18.40
2018-09-22T07:14:31.182Z,18.40
2018-09-22T07:17:01.815Z,18.60
2018-09-22T07:19:30.275Z,19.30
2018-09-22T07:22:03.879Z,18.60
2018-09-22T07:24:32.245Z,18.30
2018-09-22T07:27:00.659Z,17.90
2018-09-22T07:29:29.079Z,18.90
2018-09-22T07:31:57.794Z,19.30
2018-09-22T07:34:26.204Z,19.40
2018-09-22T07:36:54.552Z,19.60
2018-09-22T07:39:22.978Z,19.70
2018-09-22T07:41:51.302Z,19.80
2018-09-22T07:44:19.679Z,20.00
2018-09-22T07:46:48.056Z,20.20
2018-09-22T07:49:16.415Z,20.20
2018-09-22T07:51:44.761Z,20.10
2018-09-22T07:54:13.144Z,20.20
2018-09-22T07:56:41.556Z,20.10
2018-09-22T07:59:09.924Z,20.90
2018-09-22T08:01:38.341Z,20.80
2018-09-22T08:04:07.464Z,20.70
2018-09-22T08:06:35.832Z,20.20
2018-09-22T08:09:05.980Z,20.50
2018-09-22T08:11:34.403Z,20.20
2018-09-22T08:14:03.000Z,20.40
2018-09-22T08:16:31.410Z,21.00
2018-09-22T08:18:59.818Z,21.20
2018-09-22T08:21:28.223Z,21.20
2018-09-22T08:23:56.523Z,21.70
2018-09-22T08:26:24.892Z,21.80
2018-09-22T08:28:53.264Z,21.50
2018-09-22T08:31:21.640Z,21.30
2018-09-22T08:33:50.069Z,21.30
2018-09-22T08:36:18.957Z,21.70
2018-09-22T08:38:47.311Z,21.70
2018-09-22T08:41:15.724Z,21.40
2018-09-22T08:43:44.619Z,21.70
2018-09-22T08:46:13.061Z,21.00
2018-09-22T08:48:41.518Z,21.50
2018-09-22T08:51:09.983Z,21.20
2018-09-22T08:53:38.335Z,21.70
2018-09-22T08:56:07.957Z,22.50
2018-09-22T08:58:36.389Z,21.40
2018-09-22T09:01:07.194Z,21.80
2018-09-22T09:03:36.767Z,21.70
2018-09-22T09:06:05.292Z,22.20
2018-09-22T09:08:33.649Z,21.20
2018-09-22T09:11:02.107Z,21.20
2018-09-22T09:13:31.182Z,21.40
2018-09-22T09:16:00.451Z,21.20
2018-09-22T09:18:29.316Z,20.80
2018-09-22T09:20:57.753Z,21.70
2018-09-22T09:23:29.851Z,21.30
2018-09-22T09:25:59.693Z,21.70
2018-09-22T09:28:28.599Z,21.50
2018-09-22T09:30:59.078Z,21.80
2018-09-22T09:33:27.494Z,23.10
2018-09-22T09:35:56.229Z,22.30
2018-09-22T09:38:24.968Z,21.50
2018-09-22T09:46:12.827Z,22.60
2018-09-22T09:48:41.203Z,22.00
2018-09-22T09:51:09.629Z,21.60
2018-09-22T09:53:38.028Z,20.20
2018-09-22T09:56:06.519Z,19.20
2018-09-22T09:58:34.899Z,18.70
2018-09-22T10:01:03.267Z,18.60
2018-09-22T10:03:31.600Z,18.80
2018-09-22T10:05:59.981Z,18.80
2018-09-22T10:08:28.330Z,19.00
2018-09-22T10:10:56.676Z,18.80
2018-09-22T10:13:25.132Z,19.20
2018-09-22T10:15:53.456Z,20.40
2018-09-22T10:18:21.856Z,20.60
2018-09-22T10:20:50.259Z,20.20
2018-09-22T10:23:19.041Z,20.10
2018-09-22T10:25:47.404Z,19.80
2018-09-22T10:28:15.829Z,19.50
2018-09-22T10:30:44.304Z,19.40
2018-09-22T10:33:12.663Z,19.20
2018-09-22T10:35:41.021Z,19.20
2018-09-22T10:38:09.389Z,19.40
2018-09-22T10:40:37.783Z,20.10
2018-09-22T10:43:06.127Z,20.00
2018-09-22T10:45:34.532Z,19.80
2018-09-22T10:48:02.893Z,19.50
2018-09-22T10:50:31.626Z,20.00
2018-09-22T10:53:00.006Z,20.10
2018-09-22T10:55:28.388Z,20.00
2018-09-22T10:57:56.758Z,20.10
2018-09-22T11:00:25.117Z,20.40
2018-09-22T11:02:53.507Z,20.60
2018-09-22T11:05:21.863Z,20.30
2018-09-22T11:07:50.253Z,19.40
2018-09-22T11:10:18.649Z,19.30
2018-09-22T11:12:47.547Z,19.30
2018-09-22T11:15:16.443Z,19.30
2018-09-22T11:17:44.812Z,19.50
2018-09-22T11:20:13.616Z,19.60
2018-09-22T11:22:42.009Z,19.30
2018-09-22T11:25:10.347Z,19.20
2018-09-22T11:27:38.776Z,19.80
2018-09-22T11:30:07.191Z,19.60
2018-09-22T11:32:35.597Z,19.30
2018-09-22T11:35:03.965Z,19.50
2018-09-22T11:37:32.307Z,19.40
2018-09-22T11:40:00.979Z,19.60
2018-09-22T11:42:29.331Z,19.50
2018-09-22T11:44:57.763Z,19.10
2018-09-22T11:47:26.807Z,19.30
2018-09-22T11:49:55.115Z,20.00
2018-09-22T11:52:23.484Z,19.80
2018-09-22T11:54:51.875Z,19.00
2018-09-22T11:57:20.234Z,19.10
2018-09-22T11:59:48.606Z,19.90
2018-09-22T12:02:16.968Z,20.40
2018-09-22T12:04:45.364Z,19.90
2018-09-22T12:07:13.722Z,19.70
2018-09-22T12:09:42.188Z,19.40
2018-09-22T12:12:10.644Z,19.80
2018-09-22T12:14:39.022Z,19.60
2018-09-22T12:17:07.424Z,19.90
2018-09-22T12:19:35.855Z,19.90
2018-09-22T12:22:04.234Z,19.70
2018-09-22T12:24:32.602Z,20.10
2018-09-22T12:27:01.084Z,19.80
2018-09-22T12:29:29.452Z,19.50
2018-09-22T12:31:57.864Z,20.10
2018-09-22T12:34:26.608Z,19.80
2018-09-22T12:36:55.324Z,19.10
2018-09-22T12:39:23.692Z,19.50
2018-09-22T12:41:52.070Z,19.30
2018-09-22T12:44:20.686Z,18.80
2018-09-22T12:46:49.108Z,18.70
2018-09-22T12:49:17.493Z,18.40
2018-09-22T12:51:46.330Z,18.40
2018-09-22T12:54:14.691Z,18.70
2018-09-22T12:56:43.047Z,19.00
2018-09-22T12:59:11.472Z,19.30
2018-09-22T13:01:39.829Z,19.80
2018-09-22T13:04:08.243Z,19.80
2018-09-22T13:06:36.578Z,19.50
2018-09-22T13:09:07.183Z,19.00
2018-09-22T13:11:35.713Z,18.80
2018-09-22T13:14:04.189Z,19.10
2018-09-22T13:16:32.620Z,19.10
2018-09-22T13:19:01.041Z,19.30
2018-09-22T13:21:29.457Z,19.40
2018-09-22T13:23:57.872Z,18.90
2018-09-22T13:26:26.281Z,18.90
2018-09-22T13:28:54.664Z,18.90
2018-09-22T13:31:23.016Z,19.20
2018-09-22T13:33:51.368Z,19.40
2018-09-22T13:36:19.812Z,19.40
2018-09-22T13:38:48.185Z,19.30
2018-09-22T13:41:16.941Z,19.50
2018-09-22T13:43:45.335Z,19.50
2018-09-22T13:46:13.704Z,19.40
2018-09-22T13:48:42.304Z,19.50
2018-09-22T13:51:10.711Z,19.30
2018-09-22T13:53:39.174Z,19.00
2018-09-22T13:56:07.734Z,18.60
2018-09-22T13:58:36.056Z,18.50
2018-09-22T14:01:04.444Z,18.70
2018-09-22T14:03:32.817Z,18.50
2018-09-22T14:06:01.333Z,18.90
2018-09-22T14:08:29.704Z,18.60
2018-09-22T14:10:58.059Z,18.90
2018-09-22T14:13:26.390Z,18.70
2018-09-22T14:15:54.771Z,18.60
2018-09-22T14:18:23.412Z,18.60
2018-09-22T14:20:51.816Z,18.60
2018-09-22T14:23:20.167Z,18.80
2018-09-22T14:25:48.848Z,18.80
2018-09-22T14:28:17.567Z,18.70
2018-09-22T14:30:45.919Z,18.50
2018-09-22T14:33:14.560Z,18.60
2018-09-22T14:35:42.958Z,18.60
2018-09-22T14:38:11.336Z,18.40
2018-09-22T14:40:39.731Z,18.20
2018-09-22T14:43:08.206Z,18.40
2018-09-22T14:45:36.562Z,18.40
2018-09-22T14:48:05.675Z,18.40
2018-09-22T14:50:34.130Z,18.60
2018-09-22T14:53:02.573Z,18.50
2018-09-22T14:55:30.967Z,18.30
2018-09-22T14:57:59.355Z,18.40
2018-09-22T15:00:27.753Z,18.40
2018-09-22T15:02:56.081Z,18.40
2018-09-22T15:05:24.787Z,18.40
2018-09-22T15:07:53.427Z,18.50
2018-09-22T15:10:21.803Z,18.30
2018-09-22T15:12:50.189Z,18.40
2018-09-22T15:15:18.723Z,18.40
2018-09-22T15:17:47.121Z,18.30
2018-09-22T15:20:15.572Z,18.10
2018-09-22T15:22:43.935Z,18.10
2018-09-22T15:25:12.325Z,18.10
2018-09-22T15:27:40.690Z,18.10
2018-09-22T15:30:09.103Z,18.20
2018-09-22T15:32:37.473Z,18.20
2018-09-22T15:35:05.889Z,18.00
2018-09-22T15:37:34.547Z,18.00
2018-09-22T15:40:02.955Z,17.80
2018-09-22T15:42:31.335Z,17.90
2018-09-22T15:44:59.741Z,17.90
2018-09-22T15:47:28.145Z,18.00
2018-09-22T15:49:56.566Z,17.80
2018-09-22T15:52:24.946Z,17.80
2018-09-22T15:54:53.340Z,17.80
2018-09-22T15:57:21.713Z,17.80
2018-09-22T15:59:50.062Z,17.80
2018-09-22T16:02:18.927Z,17.90
2018-09-22T16:04:47.346Z,17.90
2018-09-22T16:07:15.743Z,17.60
2018-09-22T16:09:44.548Z,17.60
2018-09-22T16:12:16.202Z,17.50
2018-09-22T16:14:44.688Z,17.40
2018-09-22T16:17:13.061Z,17.30
2018-09-22T16:19:41.804Z,17.30
2018-09-22T16:22:10.838Z,17.30
2018-09-22T16:24:39.242Z,17.30
2018-09-22T16:27:07.619Z,17.20
2018-09-22T16:29:36.374Z,17.10
2018-09-22T16:32:04.758Z,17.20
2018-09-22T16:34:33.112Z,17.10
2018-09-22T16:37:01.785Z,17.10
2018-09-22T16:39:30.254Z,17.10
2018-09-22T16:41:58.668Z,17.00
2018-09-22T16:44:27.035Z,16.90
2018-09-22T16:46:55.456Z,17.00
2018-09-22T16:49:37.301Z,16.80
2018-09-22T16:52:08.840Z,16.80
2018-09-22T16:54:37.562Z,16.70
2018-09-22T16:57:06.009Z,16.80
2018-09-22T16:59:34.451Z,16.70
2018-09-22T17:02:02.952Z,16.80
2018-09-22T17:04:32.192Z,16.70
2018-09-22T17:07:00.658Z,16.60
2018-09-22T17:09:29.150Z,16.50
2018-09-22T17:11:57.510Z,16.60
2018-09-22T17:14:25.925Z,16.70
2018-09-22T17:16:54.300Z,16.70
2018-09-22T17:19:22.698Z,16.80
2018-09-22T17:21:51.067Z,16.50
2018-09-22T17:24:19.509Z,16.40
2018-09-22T17:26:47.913Z,16.40
2018-09-22T17:29:16.297Z,16.30
2018-09-22T17:31:44.705Z,16.30
2018-09-22T17:34:13.279Z,16.20
2018-09-22T17:36:41.878Z,16.20
2018-09-22T17:39:10.855Z,16.30
2018-09-22T17:41:39.228Z,16.20
2018-09-22T17:44:07.659Z,16.20
2018-09-22T17:46:36.020Z,16.20
2018-09-22T17:49:04.399Z,16.30
2018-09-22T17:51:32.784Z,16.20
2018-09-22T17:54:01.159Z,16.20
2018-09-22T17:56:29.556Z,16.10
2018-09-22T17:58:59.291Z,16.10
2018-09-22T18:01:28.114Z,16.10
2018-09-22T18:03:56.694Z,16.20
2018-09-22T18:06:25.104Z,16.20
2018-09-22T18:08:53.420Z,16.20
2018-09-22T18:11:23.530Z,16.10
2018-09-22T18:13:52.022Z,16.10
2018-09-22T18:16:20.408Z,16.10
2018-09-22T18:18:48.805Z,16.10
2018-09-22T18:21:17.224Z,16.10
2018-09-22T18:23:45.864Z,16.10
2018-09-22T18:26:14.212Z,16.10
2018-09-22T18:28:42.641Z,16.10
2018-09-22T18:31:11.528Z,16.10
2018-09-22T18:33:39.928Z,16.10
2018-09-22T18:36:08.343Z,16.10
2018-09-22T18:38:36.939Z,16.00
2018-09-22T18:41:05.373Z,16.00
2018-09-22T18:43:33.840Z,16.00
2018-09-22T18:46:03.124Z,16.00
2018-09-22T18:48:31.615Z,16.00
2018-09-22T18:51:00.090Z,16.00
2018-09-22T18:53:28.580Z,16.10
2018-09-22T18:55:56.976Z,16.00
2018-09-22T18:58:25.331Z,16.10
2018-09-22T19:00:53.741Z,15.90
2018-09-22T19:03:22.143Z,15.90
2018-09-22T19:05:50.547Z,15.90
2018-09-22T19:08:19.008Z,15.90
2018-09-22T19:10:47.404Z,15.90
2018-09-22T19:13:19.860Z,15.90
2018-09-22T19:15:52.911Z,15.90
2018-09-22T19:18:28.721Z,15.90
2018-09-22T19:23:06.004Z,16.00
2018-09-22T19:25:36.699Z,15.90
2018-09-22T19:28:08.741Z,15.70
2018-09-22T19:30:40.047Z,15.60
2018-09-22T19:33:18.369Z,15.70
2018-09-22T19:35:51.091Z,15.60
2018-09-22T19:38:26.381Z,15.60
2018-09-22T19:41:05.521Z,15.60
2018-09-22T19:43:39.105Z,15.50
2018-09-22T19:46:14.880Z,15.50
2018-09-22T19:48:53.401Z,15.40
2018-09-22T19:51:23.829Z,15.50
2018-09-22T19:53:53.217Z,15.40
2018-09-22T19:56:21.822Z,15.50
2018-09-22T19:58:51.985Z,15.50
2018-09-22T20:01:20.364Z,15.40
2018-09-22T20:03:48.750Z,15.30
2018-09-22T20:06:17.120Z,15.30
2018-09-22T20:08:45.496Z,15.30
2018-09-22T20:11:13.873Z,15.30
2018-09-22T20:13:42.273Z,15.30
2018-09-22T20:16:10.652Z,15.40
2018-09-22T20:18:39.403Z,15.10
2018-09-22T20:21:07.781Z,14.90
2018-09-22T20:23:36.182Z,14.90
2018-09-22T20:26:04.580Z,14.80
2018-09-22T20:28:32.941Z,14.80
2018-09-22T20:31:01.286Z,14.80
2018-09-22T20:33:29.818Z,14.70
2018-09-22T20:35:58.253Z,14.80
2018-09-22T20:38:26.684Z,14.80
2018-09-22T20:40:55.028Z,14.60
2018-09-22T20:43:23.782Z,14.60
2018-09-22T20:45:52.146Z,14.60
2018-09-22T20:48:20.544Z,14.50
2018-09-22T20:50:48.918Z,14.30
2018-09-22T20:53:17.432Z,14.30
2018-09-22T20:55:45.767Z,14.10
2018-09-22T20:58:14.126Z,14.10
2018-09-22T21:00:42.446Z,14.10
2018-09-22T21:03:10.786Z,14.10
2018-09-22T21:05:39.442Z,14.00
2018-09-22T21:08:07.821Z,14.00
2018-09-22T21:10:36.284Z,13.90
2018-09-22T21:13:04.659Z,13.90
2018-09-22T21:15:33.471Z,14.00
2018-09-22T21:18:01.910Z,13.90
2018-09-22T21:20:30.564Z,13.80
2018-09-22T21:22:58.937Z,13.90
2018-09-22T21:25:27.287Z,13.90
2018-09-22T21:27:55.661Z,13.80
2018-09-22T21:30:24.011Z,13.80
2018-09-22T21:32:52.377Z,13.70
2018-09-22T21:35:20.726Z,13.80
2018-09-22T21:37:49.078Z,13.80
2018-09-22T21:40:17.481Z,13.80
2018-09-22T21:42:45.853Z,13.80
2018-09-22T21:45:14.576Z,13.90
2018-09-22T21:47:42.919Z,13.90
2018-09-22T21:50:11.295Z,13.80
2018-09-22T21:52:39.633Z,13.80
2018-09-22T21:55:08.029Z,13.80
2018-09-22T21:57:36.731Z,13.70
2018-09-22T22:00:05.555Z,13.80
2018-09-22T22:02:33.931Z,13.60
2018-09-22T22:05:02.293Z,13.70
2018-09-22T22:07:30.681Z,13.70
2018-09-22T22:09:59.040Z,13.50
2018-09-22T22:12:27.905Z,13.50
2018-09-22T22:14:56.295Z,13.50
2018-09-22T22:17:24.698Z,13.50
2018-09-22T22:19:53.059Z,13.40
2018-09-22T22:22:21.437Z,13.40
2018-09-22T22:24:49.806Z,13.30
2018-09-22T22:27:18.663Z,13.20
2018-09-22T22:29:47.049Z,13.20
2018-09-22T22:32:15.436Z,13.10
2018-09-22T22:34:43.927Z,13.20
2018-09-22T22:37:12.374Z,12.90
2018-09-22T22:39:40.835Z,13.00
2018-09-22T22:42:09.686Z,12.80
2018-09-22T22:44:38.049Z,12.70
2018-09-22T22:47:06.454Z,12.70
2018-09-22T22:49:35.300Z,12.60
2018-09-22T22:52:03.711Z,12.60
2018-09-22T22:54:32.065Z,12.60
2018-09-22T22:57:00.446Z,12.60
2018-09-22T22:59:28.828Z,12.70
2018-09-22T23:01:57.174Z,12.60
2018-09-22T23:04:25.524Z,12.60
2018-09-22T23:06:53.883Z,12.90
2018-09-22T23:09:22.232Z,12.70
2018-09-22T23:11:50.717Z,12.60
2018-09-22T23:14:19.081Z,12.60
2018-09-22T23:16:47.448Z,12.60
2018-09-22T23:19:15.804Z,12.60
2018-09-22T23:21:44.165Z,12.60
2018-09-22T23:24:12.507Z,12.70
2018-09-22T23:26:40.906Z,12.60
2018-09-22T23:29:09.286Z,12.60
2018-09-22T23:31:37.621Z,12.60
2018-09-22T23:34:06.033Z,12.80
2018-09-22T23:36:34.379Z,12.60
2018-09-22T23:39:02.771Z,12.50
2018-09-22T23:41:31.107Z,12.40
2018-09-22T23:43:59.498Z,12.40
2018-09-22T23:46:28.345Z,12.30
2018-09-22T23:48:56.691Z,12.30
2018-09-22T23:51:25.052Z,12.40
2018-09-22T23:53:53.360Z,12.30
2018-09-22T23:56:21.697Z,12.30
2018-09-22T23:58:50.029Z,12.30
